createdAt,value
2022-11-24T00:01:43.573Z,99791.69
2022-11-24T00:06:45.402Z,99788.56
2022-11-24T00:11:47.177Z,99789.56
2022-11-24T00:16:50.319Z,99787.47
2022-11-24T00:21:52.156Z,99800.00
2022-11-24T00:26:53.924Z,99801.25
2022-11-24T00:31:57.102Z,99802.38
2022-11-24T00:36:58.853Z,99804.06
2022-11-24T00:42:00.682Z,99800.94
2022-11-24T00:47:03.942Z,99811.59
2022-11-24T00:52:05.850Z,99815.56
2022-11-24T00:57:07.735Z,99822.91
2022-11-24T01:02:10.903Z,99840.84
2022-11-24T01:07:12.707Z,99833.66
2022-11-24T01:12:14.510Z,99840.47
2022-11-24T01:17:17.639Z,99839.31
2022-11-24T01:22:19.433Z,99835.53
2022-11-24T01:27:21.324Z,99843.53
2022-11-24T01:32:24.581Z,99851.63
2022-11-24T01:37:26.718Z,99837.72
2022-11-24T01:42:37.551Z,99853.06
2022-11-24T01:47:43.524Z,99853.84
2022-11-24T01:52:46.467Z,99862.56
2022-11-24T01:57:49.846Z,99863.38
2022-11-24T02:02:53.028Z,99863.38
2022-11-24T02:07:57.141Z,99861.19
2022-11-24T02:13:00.021Z,99865.81
2022-11-24T02:18:03.335Z,99869.19
2022-11-24T02:23:08.173Z,99875.53
2022-11-24T02:28:13.531Z,99876.31
2022-11-24T02:33:15.322Z,99873.41
2022-11-24T02:38:17.126Z,99876.66
2022-11-24T02:43:21.107Z,99879.44
2022-11-24T02:48:22.889Z,99886.69
2022-11-24T02:53:24.912Z,99889.69
2022-11-24T02:58:27.995Z,99891.56
2022-11-24T03:03:29.822Z,99888.41
2022-11-24T03:08:31.590Z,99894.72
2022-11-24T03:13:34.654Z,99896.34
2022-11-24T03:18:36.496Z,99900.63
2022-11-24T03:23:38.253Z,99905.31
2022-11-24T03:28:41.442Z,99901.09
2022-11-24T03:33:43.197Z,99905.53
2022-11-24T03:38:44.997Z,99914.44
2022-11-24T03:43:48.154Z,99924.38
2022-11-24T03:48:50.023Z,99928.44
2022-11-24T03:53:51.805Z,99930.88
2022-11-24T03:58:54.897Z,99936.50
2022-11-24T04:03:56.695Z,99941.91
2022-11-24T04:08:59.981Z,99951.66
2022-11-24T04:14:03.095Z,99950.72
2022-11-24T04:19:05.268Z,99959.31
2022-11-24T04:24:07.152Z,99960.31
2022-11-24T04:29:11.051Z,99960.91
2022-11-24T04:34:12.803Z,99968.72
2022-11-24T04:39:25.421Z,99974.94
2022-11-24T04:44:29.853Z,99975.03
2022-11-24T04:49:31.672Z,99972.50
2022-11-24T04:54:33.758Z,99982.41
2022-11-24T04:59:37.077Z,99992.00
2022-11-24T05:04:39.006Z,99993.56
2022-11-24T05:10:00.823Z,100002.66
2022-11-24T05:15:04.995Z,100008.69
2022-11-24T05:20:07.587Z,100014.84
2022-11-24T05:25:09.773Z,100022.69
2022-11-24T05:30:13.815Z,100028.47
2022-11-24T05:35:15.957Z,100031.81
2022-11-24T05:40:17.806Z,100034.34
2022-11-24T05:45:21.321Z,100035.97
2022-11-24T05:50:23.130Z,100042.75
2022-11-24T05:55:25.217Z,100046.47
2022-11-24T06:00:28.798Z,100040.19
2022-11-24T06:05:30.780Z,100057.56
2022-11-24T06:10:32.534Z,100050.44
2022-11-24T06:15:37.551Z,100048.66
2022-11-24T06:20:39.281Z,100050.66
2022-11-24T06:25:40.971Z,100062.84
2022-11-24T06:30:44.055Z,100067.25
2022-11-24T06:35:45.765Z,100076.84
2022-11-24T06:40:47.536Z,100082.69
2022-11-24T06:45:52.714Z,100083.59
2022-11-24T06:50:58.178Z,100086.00
2022-11-24T06:56:00.033Z,100095.31
2022-11-24T07:01:03.235Z,100096.47
2022-11-24T07:06:05.259Z,100094.69
2022-11-24T07:11:07.347Z,100108.44
2022-11-24T07:16:15.251Z,100099.13
2022-11-24T07:21:17.402Z,100105.28
2022-11-24T07:26:19.388Z,100122.78
2022-11-24T07:31:24.883Z,100119.50
2022-11-24T07:36:26.780Z,100121.91
2022-11-24T07:41:28.577Z,100139.13
2022-11-24T07:46:31.715Z,100150.72
2022-11-24T07:51:33.546Z,100147.34
2022-11-24T07:56:35.344Z,100151.28
2022-11-24T08:01:38.675Z,100154.41
2022-11-24T08:06:44.643Z,100164.97
2022-11-24T08:11:48.984Z,100166.13
2022-11-24T08:16:52.161Z,100175.50
2022-11-24T08:21:53.937Z,100176.25
2022-11-24T08:26:55.729Z,100184.13
2022-11-24T08:31:58.925Z,100188.00
2022-11-24T08:37:00.824Z,100187.00
2022-11-24T08:42:02.849Z,100201.00
2022-11-24T08:47:05.982Z,100201.72
2022-11-24T08:52:07.732Z,100202.22
2022-11-24T08:57:09.587Z,100221.44
2022-11-24T09:02:12.889Z,100218.09
2022-11-24T09:07:14.729Z,100227.06
2022-11-24T09:12:16.695Z,100235.22
2022-11-24T09:17:19.781Z,100226.53
2022-11-24T09:22:21.593Z,100240.47
2022-11-24T09:27:23.309Z,100240.69
2022-11-24T09:32:26.374Z,100246.66
2022-11-24T09:37:32.494Z,100255.97
2022-11-24T09:42:37.564Z,100252.09
2022-11-24T09:47:46.778Z,100262.63
2022-11-24T09:52:50.157Z,100266.97
2022-11-24T09:57:54.784Z,100262.00
2022-11-24T10:02:57.864Z,100271.47
2022-11-24T10:08:06.292Z,100268.34
2022-11-24T10:13:15.645Z,100269.72
2022-11-24T10:18:33.809Z,100280.75
2022-11-24T10:23:43.628Z,100277.50
2022-11-24T10:28:48.940Z,100284.97
2022-11-24T10:33:52.281Z,100282.00
2022-11-24T10:38:57.514Z,100292.78
2022-11-24T10:43:59.339Z,100288.94
2022-11-24T10:49:04.400Z,100288.59
2022-11-24T10:54:09.548Z,100279.41
2022-11-24T10:59:21.346Z,100275.78
2022-11-24T11:04:25.964Z,100278.59
2022-11-24T11:09:27.754Z,100285.97
2022-11-24T11:14:30.979Z,100291.06
2022-11-24T11:19:54.342Z,100296.22
2022-11-24T11:25:16.496Z,100298.78
2022-11-24T11:35:46.674Z,100294.94
2022-11-24T11:40:49.154Z,100294.53
2022-11-24T11:45:57.597Z,100297.53
2022-11-24T11:56:25.013Z,100310.97
2022-11-24T12:01:35.298Z,100310.06
2022-11-24T12:06:54.417Z,100322.31
2022-11-24T12:12:04.686Z,100320.78
2022-11-24T12:17:07.955Z,100329.47
2022-11-24T12:22:14.893Z,100327.72
2022-11-24T12:27:23.370Z,100329.91
2022-11-24T12:32:34.423Z,100328.13
2022-11-24T12:37:48.568Z,100340.09
2022-11-24T12:42:52.674Z,100347.78
2022-11-24T12:48:11.682Z,100345.31
2022-11-24T12:53:16.154Z,100353.31
2022-11-24T12:58:20.440Z,100352.16
2022-11-24T13:03:30.207Z,100359.69
2022-11-24T13:08:33.501Z,100364.75
2022-11-24T13:14:01.823Z,100363.31
2022-11-24T13:19:09.090Z,100367.31
2022-11-24T13:24:21.705Z,100375.22
2022-11-24T13:29:31.006Z,100382.84
2022-11-24T13:34:55.128Z,100392.41
2022-11-24T13:39:59.188Z,100390.78
2022-11-24T13:45:01.692Z,100394.28
2022-11-24T13:50:04.907Z,100400.16
2022-11-24T13:55:38.670Z,100406.00
2022-11-24T14:01:07.331Z,100410.75
2022-11-24T14:06:17.254Z,100420.28
2022-11-24T14:11:20.928Z,100416.75
2022-11-24T14:16:23.161Z,100423.47
2022-11-24T14:21:27.166Z,100427.38
2022-11-24T14:26:32.964Z,100436.22
2022-11-24T14:31:34.803Z,100443.28
2022-11-24T14:36:36.611Z,100453.09
2022-11-24T14:41:39.997Z,100459.06
2022-11-24T14:46:41.936Z,100469.69
2022-11-24T14:51:44.564Z,100474.31
2022-11-24T14:56:58.280Z,100489.16
2022-11-24T15:02:00.381Z,100492.28
2022-11-24T15:07:05.009Z,100494.09
2022-11-24T15:12:09.506Z,100498.28
2022-11-24T15:17:16.841Z,100503.72
2022-11-24T15:22:43.698Z,100507.56
2022-11-24T15:27:46.857Z,100514.88
2022-11-24T15:32:50.138Z,100514.09
2022-11-24T15:37:52.087Z,100511.41
2022-11-24T15:42:56.163Z,100525.72
2022-11-24T15:47:57.956Z,100530.13
2022-11-24T15:52:59.699Z,100531.28
2022-11-24T15:58:02.854Z,100530.75
2022-11-24T16:03:23.940Z,100536.50
2022-11-24T16:08:26.468Z,100544.06
2022-11-24T16:13:29.637Z,100533.66
2022-11-24T16:18:35.529Z,100537.06
2022-11-24T16:23:37.432Z,100537.97
2022-11-24T16:28:40.748Z,100529.19
2022-11-24T16:33:44.703Z,100538.91
2022-11-24T16:38:46.703Z,100544.31
2022-11-24T16:43:49.971Z,100547.97
2022-11-24T16:48:53.150Z,100558.78
2022-11-24T16:53:57.208Z,100564.91
2022-11-24T16:59:00.351Z,100559.94
2022-11-24T17:04:02.091Z,100579.97
2022-11-24T17:09:04.021Z,100574.56
2022-11-24T17:14:07.143Z,100577.06
2022-11-24T17:19:09.416Z,100569.34
2022-11-24T17:24:15.452Z,100574.44
2022-11-24T17:29:19.013Z,100580.53
2022-11-24T17:34:21.005Z,100580.84
2022-11-24T17:39:25.179Z,100594.03
2022-11-24T17:44:28.353Z,100598.53
2022-11-24T17:49:30.142Z,100603.56
2022-11-24T17:54:45.818Z,100602.81
2022-11-24T17:59:51.048Z,100603.63
2022-11-24T18:04:52.865Z,100600.06
2022-11-24T18:09:54.675Z,100615.75
2022-11-24T18:14:57.892Z,100621.00
2022-11-24T18:19:59.856Z,100625.22
2022-11-24T18:25:01.958Z,100627.91
2022-11-24T18:30:08.489Z,100627.88
2022-11-24T18:35:10.295Z,100629.75
2022-11-24T18:40:12.317Z,100630.56
2022-11-24T18:45:15.552Z,100630.50
2022-11-24T18:50:17.580Z,100640.00
2022-11-24T18:55:20.588Z,100635.00
2022-11-24T19:00:24.095Z,100637.69
2022-11-24T19:05:25.943Z,100634.09
2022-11-24T19:10:27.822Z,100642.78
2022-11-24T19:15:33.966Z,100646.94
2022-11-24T19:20:35.985Z,100657.63
2022-11-24T19:25:37.907Z,100649.03
2022-11-24T19:30:41.781Z,100649.75
2022-11-24T19:35:43.705Z,100659.44
2022-11-24T19:40:45.523Z,100656.78
2022-11-24T19:45:48.833Z,100668.88
2022-11-24T19:50:58.370Z,100676.00
2022-11-24T19:56:03.533Z,100674.28
2022-11-24T20:01:07.508Z,100678.78
2022-11-24T20:06:10.159Z,100676.28
2022-11-24T20:11:12.849Z,100683.25
2022-11-24T20:16:16.733Z,100681.50
2022-11-24T20:21:19.371Z,100679.75
2022-11-24T20:26:23.064Z,100690.28
2022-11-24T20:31:27.247Z,100683.22
2022-11-24T20:36:29.789Z,100681.53
2022-11-24T20:41:32.530Z,100693.13
2022-11-24T20:46:36.493Z,100693.91
2022-11-24T20:51:39.734Z,100699.13
2022-11-24T20:56:42.505Z,100700.16
2022-11-24T21:01:46.150Z,100713.34
2022-11-24T21:06:48.329Z,100716.91
2022-11-24T21:11:50.392Z,100718.66
2022-11-24T21:16:53.776Z,100717.81
2022-11-24T21:21:55.657Z,100718.75
2022-11-24T21:26:57.487Z,100713.53
2022-11-24T21:32:00.698Z,100714.41
2022-11-24T21:37:02.531Z,100724.81
2022-11-24T21:42:04.890Z,100732.69
2022-11-24T21:47:08.207Z,100736.22
2022-11-24T21:52:10.033Z,100740.56
2022-11-24T21:57:11.878Z,100745.81
2022-11-24T22:02:15.009Z,100755.41
2022-11-24T22:07:16.864Z,100755.38
2022-11-24T22:12:18.708Z,100761.50
2022-11-24T22:17:21.841Z,100746.66
2022-11-24T22:22:23.784Z,100749.28
2022-11-24T22:27:25.829Z,100745.78
2022-11-24T22:32:29.007Z,100760.63
2022-11-24T22:37:30.903Z,100749.28
2022-11-24T22:42:32.762Z,100753.56
2022-11-24T22:47:35.970Z,100759.66
2022-11-24T22:52:38.681Z,100750.91
2022-11-24T22:57:42.855Z,100748.25
2022-11-24T23:02:48.110Z,100749.06
2022-11-24T23:07:49.963Z,100749.91
2022-11-24T23:12:51.774Z,100751.91
2022-11-24T23:17:55.505Z,100757.75
2022-11-24T23:22:57.357Z,100753.31
2022-11-24T23:27:59.212Z,100741.09
2022-11-24T23:33:02.373Z,100737.59
2022-11-24T23:38:08.133Z,100733.28
2022-11-24T23:43:10.096Z,100727.09
2022-11-24T23:48:13.227Z,100727.81
2022-11-24T23:53:15.096Z,100733.34
2022-11-24T23:58:17.099Z,100735.94
